Time;durP1;ratioP1;P1;durP2;ratioP2;P2;SDS_P1;SDS_P2;PMS_P1;PMS_P2;Temp;Humidity;BMP_temperature;BMP_pressure;BME280_temperature;BME280_humidity;BME280_pressure;Samples;Min_cycle;Max_cycle;Signal;HPM_P1;HPM_P2
2021/08/27 00:01:12;;;;;;;7.38;3.50;;;;;;;15.01;98.38;99466.25;6268911;28;20096;-86
2021/08/27 00:04:12;;;;;;;7.85;3.60;;;;;;;14.97;97.67;99461.38;6268705;28;20036;-85
2021/08/27 00:07:13;;;;;;;6.75;3.33;;;;;;;14.90;100.00;99463.72;6268939;28;20044;-85
2021/08/27 00:10:14;;;;;;;6.25;3.58;;;;;;;14.89;98.95;99473.41;6301916;28;20048;-86
2021/08/27 00:13:15;;;;;;;7.60;3.17;;;;;;;14.84;100.00;99466.88;6319856;28;20075;-85
2021/08/27 00:16:16;;;;;;;8.95;3.80;;;;;;;14.81;99.57;99459.28;6285132;28;20805;-85
2021/08/27 00:19:17;;;;;;;7.43;3.80;;;;;;;14.80;100.00;99462.88;6301766;28;20074;-85
2021/08/27 00:22:18;;;;;;;6.28;3.53;;;;;;;14.82;100.00;99471.44;6285134;28;20130;-85
2021/08/27 00:25:18;;;;;;;7.93;3.53;;;;;;;14.86;100.00;99471.03;6301853;28;20115;-86
2021/08/27 00:28:19;;;;;;;8.25;3.92;;;;;;;14.89;100.00;99469.94;6285180;28;20040;-85
2021/08/27 00:31:20;;;;;;;6.85;3.35;;;;;;;14.89;100.00;99477.81;6272499;28;20052;-86
2021/08/27 00:34:21;;;;;;;8.05;3.50;;;;;;;14.87;100.00;99483.22;6273248;28;20032;-85
2021/08/27 00:37:21;;;;;;;7.85;3.55;;;;;;;14.86;100.00;99484.16;6273120;28;20054;-86
2021/08/27 00:40:22;;;;;;;5.63;3.40;;;;;;;14.89;100.00;99486.53;6289931;28;20046;-85
2021/08/27 00:43:23;;;;;;;6.93;3.83;;;;;;;14.84;100.00;99477.38;6273780;28;20040;-85
2021/08/27 00:46:24;;;;;;;6.97;3.70;;;;;;;14.73;100.00;99486.22;6306606;28;20040;-85
2021/08/27 00:49:24;;;;;;;6.57;3.70;;;;;;;14.66;100.00;99488.56;6273331;28;20049;-85
2021/08/27 00:52:26;;;;;;;6.43;3.67;;;;;;;14.62;100.00;99488.94;6273801;28;20074;-85
2021/08/27 00:55:27;;;;;;;7.57;3.70;;;;;;;14.62;100.00;99484.53;6306409;28;20040;-86
2021/08/27 00:58:27;;;;;;;8.48;4.00;;;;;;;14.56;100.00;99482.44;6289483;28;20052;-85
2021/08/27 01:01:28;;;;;;;5.80;3.80;;;;;;;14.51;100.00;99489.84;6289332;28;20146;-85
2021/08/27 01:04:30;;;;;;;6.03;3.75;;;;;;;14.57;100.00;99485.88;6289525;28;20040;-84
2021/08/27 01:07:36;;;;;;;7.75;3.50;;;;;;;14.66;100.00;99482.44;6306122;28;20131;-84
2021/08/27 01:10:41;;;;;;;9.48;3.53;;;;;;;14.65;100.00;99491.31;6305813;28;20044;-84
2021/08/27 01:13:51;;;;;;;6.80;4.13;;;;;;;14.56;100.00;99489.47;6305677;28;20036;-85
2021/08/27 01:17:28;;;;;;;9.32;3.60;;;;;;;14.58;100.00;99477.03;6305431;28;20097;-85
2021/08/27 01:20:41;;;;;;;7.90;3.80;;;;;;;14.64;100.00;99484.38;6208074;28;20049;-84
2021/08/27 01:23:48;;;;;;;8.13;3.65;;;;;;;14.57;100.00;99486.72;6305449;28;20097;-84
2021/08/27 01:26:53;;;;;;;6.20;4.13;;;;;;;14.29;100.00;99494.31;6288430;28;20055;-84
2021/08/27 01:30:44;;;;;;;7.07;3.40;;;;;;;14.26;100.00;99499.81;6305344;28;20036;-85
2021/08/27 01:33:57;;;;;;;8.55;4.18;;;;;;;14.30;100.00;99505.63;6300061;28;20138;-84
2021/08/27 01:36:58;;;;;;;6.75;3.97;;;;;;;14.38;100.00;99512.88;6305284;28;20052;-84
2021/08/27 01:40:01;;;;;;;8.33;4.23;;;;;;;14.26;100.00;99509.47;6305092;28;20478;-85
2021/08/27 01:43:05;;;;;;;6.57;4.05;;;;;;;14.25;100.00;99499.97;6304502;28;20047;-86
2021/08/27 01:46:06;;;;;;;7.68;3.88;;;;;;;14.30;100.00;99495.97;6304952;28;20040;-85
2021/08/27 01:49:12;;;;;;;7.05;3.92;;;;;;;14.39;100.00;99501.38;6305328;28;20068;-85
2021/08/27 01:52:15;;;;;;;5.72;3.78;;;;;;;14.42;100.00;99501.13;6305017;28;20040;-85
2021/08/27 01:55:18;;;;;;;6.03;3.92;;;;;;;14.37;100.00;99490.19;6305591;28;20456;-86
2021/08/27 01:58:19;;;;;;;9.73;4.55;;;;;;;14.38;100.00;99500.56;6304523;28;20036;-84
2021/08/27 02:01:24;;;;;;;6.82;4.22;;;;;;;14.31;100.00;99502.88;6287488;28;20047;-84
2021/08/27 02:04:25;;;;;;;7.65;4.10;;;;;;;14.36;100.00;99505.13;6304345;28;20460;-84
2021/08/27 02:07:26;;;;;;;8.60;4.68;;;;;;;14.42;100.00;99503.75;6287552;28;20048;-84
2021/08/27 02:10:29;;;;;;;9.93;4.45;;;;;;;14.40;100.00;99496.00;6304041;28;20127;-84
2021/08/27 02:13:31;;;;;;;6.57;4.30;;;;;;;14.46;100.00;99497.28;6287770;28;20051;-84
2021/08/27 02:16:32;;;;;;;7.97;4.40;;;;;;;14.47;100.00;99491.88;6303975;28;20040;-84
2021/08/27 02:19:34;;;;;;;6.88;4.32;;;;;;;14.47;100.00;99484.00;6287160;28;20487;-84
2021/08/27 02:22:34;;;;;;;;;;;;;;;14.45;100.00;99485.94;6287624;28;20066;-85
2021/08/27 02:25:39;;;;;;;8.45;4.20;;;;;;;14.49;100.00;99478.63;6303602;28;19959;-85
2021/08/27 02:28:43;;;;;;;10.02;4.63;;;;;;;14.47;100.00;99480.56;6303630;28;20036;-85
2021/08/27 02:31:48;;;;;;;8.30;4.28;;;;;;;14.44;100.00;99473.78;6287145;28;20098;-84
2021/08/27 02:34:50;;;;;;;8.70;4.93;;;;;;;14.42;100.00;99473.09;6303532;28;20036;-85
2021/08/27 02:37:51;;;;;;;7.50;4.75;;;;;;;14.44;100.00;99480.84;6262047;28;20415;-84
2021/08/27 02:40:52;;;;;;;8.20;4.38;;;;;;;14.45;100.00;99482.50;6261953;28;20064;-86
2021/08/27 02:43:52;;;;;;;16.80;10.73;;;;;;;14.35;100.00;99492.97;6296079;28;20047;-85
2021/08/27 02:46:53;;;;;;;12.60;7.00;;;;;;;14.31;100.00;99483.69;6294904;28;20098;-84
2021/08/27 02:49:54;;;;;;;8.10;5.78;;;;;;;14.15;100.00;99486.78;6295141;28;20046;-84
2021/08/27 02:53:01;;;;;;;32.65;13.75;;;;;;;14.09;100.00;99485.50;6278117;28;20566;-85
2021/08/27 02:56:04;;;;;;;60.83;20.00;;;;;;;14.09;100.00;99489.94;6295665;28;20086;-86
2021/08/27 02:59:11;;;;;;;97.55;31.20;;;;;;;14.13;100.00;99499.19;6296858;28;20059;-85
2021/08/27 03:02:15;;;;;;;60.05;22.70;;;;;;;14.21;100.00;99488.88;6295717;28;20493;-85
2021/08/27 03:05:23;;;;;;;59.28;22.55;;;;;;;14.27;100.00;99484.91;6295328;28;20098;-84
2021/08/27 03:08:24;;;;;;;31.67;11.40;;;;;;;14.32;100.00;99482.72;6295465;28;20043;-84
2021/08/27 03:11:28;;;;;;;18.40;7.75;;;;;;;14.31;100.00;99487.13;6278634;28;20335;-85
2021/08/27 03:14:33;;;;;;;18.02;8.32;;;;;;;14.37;100.00;99495.44;6296627;28;20037;-85
2021/08/27 03:17:40;;;;;;;15.52;7.28;;;;;;;14.35;100.00;99498.22;6296340;28;20067;-85
2021/08/27 03:20:53;;;;;;;10.27;5.47;;;;;;;14.40;100.00;99506.50;6278627;28;20058;-84
2021/08/27 03:24:00;;;;;;;11.00;5.28;;;;;;;14.31;100.00;99509.94;6312158;28;20437;-84
2021/08/27 03:27:05;;;;;;;10.75;5.53;;;;;;;14.31;100.00;99504.69;6311216;28;20496;-85
2021/08/27 03:30:19;;;;;;;9.63;5.30;;;;;;;14.35;100.00;99513.09;6294586;28;20481;-84
2021/08/27 03:33:22;;;;;;;9.52;5.05;;;;;;;14.34;100.00;99496.53;6296015;28;20448;-85
2021/08/27 03:36:29;;;;;;;9.35;5.75;;;;;;;14.34;100.00;99504.41;6294539;28;20047;-85
2021/08/27 03:39:30;;;;;;;8.48;5.32;;;;;;;14.40;100.00;99511.75;6294387;28;20135;-84
2021/08/27 03:42:31;;;;;;;10.10;5.60;;;;;;;14.40;100.00;99506.50;6294401;28;20044;-85
2021/08/27 03:45:33;;;;;;;8.40;5.75;;;;;;;14.33;100.00;99513.25;6277714;28;20277;-84
2021/08/27 03:48:35;;;;;;;8.82;5.40;;;;;;;14.25;100.00;99513.09;6261355;28;20036;-84
2021/08/27 03:51:35;;;;;;;8.15;5.28;;;;;;;14.13;100.00;99516.75;6261421;28;20495;-86
2021/08/27 03:54:38;;;;;;;14.05;5.78;;;;;;;14.16;100.00;99519.91;6294678;28;20047;-85
2021/08/27 03:57:40;;;;;;;6.75;4.93;;;;;;;14.19;100.00;99518.84;6277785;28;20452;-85
2021/08/27 04:00:41;;;;;;;8.90;5.30;;;;;;;14.26;100.00;99517.34;6295303;28;20123;-86
2021/08/27 04:03:42;;;;;;;11.32;5.10;;;;;;;14.38;100.00;99513.69;6278451;28;20414;-85
2021/08/27 04:06:42;;;;;;;9.27;5.03;;;;;;;14.45;100.00;99506.94;6282783;28;20395;-86
2021/08/27 04:09:43;;;;;;;9.23;5.18;;;;;;;14.46;100.00;99511.25;6283126;28;20040;-85
2021/08/27 04:12:44;;;;;;;13.38;5.55;;;;;;;14.49;100.00;99516.22;6283094;28;20067;-84
2021/08/27 04:15:45;;;;;;;9.37;5.23;;;;;;;14.53;100.00;99516.78;6299382;28;20068;-85
2021/08/27 04:18:46;;;;;;;8.18;5.03;;;;;;;14.54;100.00;99501.84;6282675;28;20096;-85
2021/08/27 04:21:47;;;;;;;9.15;5.38;;;;;;;14.57;100.00;99499.00;6265523;28;20075;-84
2021/08/27 04:24:48;;;;;;;10.07;5.72;;;;;;;14.55;100.00;99485.97;6298967;28;20115;-85
2021/08/27 04:27:49;;;;;;;10.98;5.65;;;;;;;14.49;100.00;99484.72;6282130;28;20414;-85
2021/08/27 04:30:50;;;;;;;10.88;5.65;;;;;;;14.48;100.00;99490.13;6281981;28;20063;-84
2021/08/27 04:33:51;;;;;;;12.65;5.68;;;;;;;14.39;100.00;99494.38;6281933;28;20082;-84
2021/08/27 04:36:51;;;;;;;12.13;5.68;;;;;;;14.41;100.00;99494.22;6265044;28;20427;-84
2021/08/27 04:39:52;;;;;;;12.05;6.07;;;;;;;14.50;100.00;99507.38;6290151;28;20122;-84
2021/08/27 04:42:53;;;;;;;11.70;6.00;;;;;;;14.64;100.00;99523.75;6273082;28;20042;-84
2021/08/27 04:45:54;;;;;;;7.57;5.53;;;;;;;14.70;100.00;99529.34;6289907;28;20059;-84
2021/08/27 04:48:55;;;;;;;9.68;5.40;;;;;;;14.73;100.00;99543.97;6289439;28;20040;-83
2021/08/27 04:51:55;;;;;;;9.85;5.35;;;;;;;14.82;100.00;99539.72;6289365;28;20048;-83
2021/08/27 04:54:56;;;;;;;7.80;5.32;;;;;;;14.83;100.00;99549.28;6272888;28;20040;-83
2021/08/27 04:57:57;;;;;;;12.75;5.53;;;;;;;14.73;100.00;99548.41;6272539;28;20047;-84
2021/08/27 05:00:58;;;;;;;10.90;5.32;;;;;;;14.71;100.00;99544.09;6289030;28;20040;-85
2021/08/27 05:03:59;;;;;;;9.32;5.15;;;;;;;14.75;100.00;99547.31;6289084;28;20090;-85
2021/08/27 05:06:59;;;;;;;8.35;5.05;;;;;;;14.77;100.00;99537.50;6289162;28;20479;-85
2021/08/27 05:10:00;;;;;;;9.77;4.85;;;;;;;14.78;100.00;99541.78;6272371;28;20085;-82
2021/08/27 05:13:01;;;;;;;11.98;5.20;;;;;;;14.70;100.00;99555.59;6288897;28;20044;-82
2021/08/27 05:16:02;;;;;;;8.27;5.00;;;;;;;14.66;100.00;99550.72;6288222;28;20432;-82
2021/08/27 05:19:03;;;;;;;9.48;5.00;;;;;;;14.55;100.00;99556.84;6272127;28;20036;-82
2021/08/27 05:22:03;;;;;;;9.25;4.90;;;;;;;14.58;100.00;99558.41;6255752;28;20048;-82
2021/08/27 05:25:05;;;;;;;8.43;5.05;;;;;;;14.54;100.00;99560.47;6305215;28;20036;-82
2021/08/27 05:28:06;;;;;;;9.90;4.88;;;;;;;14.53;100.00;99553.53;6288565;28;20517;-82
2021/08/27 05:31:09;;;;;;;10.10;5.65;;;;;;;14.45;100.00;99553.34;6305000;28;20048;-82
2021/08/27 05:34:10;;;;;;;9.80;5.28;;;;;;;14.29;100.00;99546.78;6286881;28;20092;-83
2021/08/27 05:37:11;;;;;;;9.70;5.50;;;;;;;14.19;100.00;99534.59;6271684;28;20489;-83
2021/08/27 05:40:12;;;;;;;9.65;5.68;;;;;;;14.02;100.00;99520.25;6263301;28;20036;-83
2021/08/27 05:43:13;;;;;;;9.02;5.75;;;;;;;13.98;100.00;99529.34;6306139;28;20037;-83
2021/08/27 05:46:14;;;;;;;12.63;5.97;;;;;;;13.94;100.00;99536.66;6246977;28;20276;-83
2021/08/27 05:49:15;;;;;;;7.28;5.43;;;;;;;14.02;100.00;99538.59;6279789;28;20471;-83
2021/08/27 05:52:16;;;;;;;8.02;5.50;;;;;;;14.14;100.00;99544.63;6272675;28;20387;-87
2021/08/27 05:55:16;;;;;;;10.43;5.88;;;;;;;14.31;100.00;99552.75;6320084;28;20048;-86
2021/08/27 05:58:17;;;;;;;10.68;6.13;;;;;;;14.48;100.00;99559.19;6289186;28;20501;-86
2021/08/27 06:01:18;;;;;;;8.07;5.30;;;;;;;14.58;100.00;99564.53;6306025;28;20166;-86
2021/08/27 06:04:19;;;;;;;11.32;5.40;;;;;;;14.69;100.00;99556.53;6289413;28;20072;-87
2021/08/27 06:07:19;;;;;;;8.98;5.93;;;;;;;14.63;100.00;99558.88;6306285;28;20063;-85
2021/08/27 06:10:20;;;;;;;13.38;6.30;;;;;;;14.56;100.00;99521.81;6288672;28;20444;-83
2021/08/27 06:13:22;;;;;;;8.90;6.03;;;;;;;14.50;100.00;99519.69;6305461;28;20048;-84
2021/08/27 06:16:22;;;;;;;9.07;5.68;;;;;;;14.58;100.00;99514.63;6272047;28;20093;-84
2021/08/27 06:19:23;;;;;;;8.80;5.80;;;;;;;14.69;100.00;99524.22;6271740;28;20039;-83
2021/08/27 06:22:24;;;;;;;10.20;6.22;;;;;;;14.83;100.00;99520.38;6285723;28;20043;-84
2021/08/27 06:25:25;;;;;;;10.70;6.00;;;;;;;14.90;100.00;99518.88;6293550;28;20082;-83
2021/08/27 06:28:26;;;;;;;10.73;6.43;;;;;;;14.95;100.00;99506.19;6276291;28;20056;-88
2021/08/27 06:31:27;;;;;;;10.50;5.95;;;;;;;14.99;100.00;99504.94;6313980;28;20055;-83
2021/08/27 06:34:28;;;;;;;9.60;6.47;;;;;;;15.09;100.00;99513.69;6286188;28;20040;-83
2021/08/27 06:40:50;;;;;;;8.25;6.25;;;;;;;15.29;100.00;99537.34;6291238;28;20064;-82
2021/08/27 06:43:51;;;;;;;12.70;5.90;;;;;;;15.35;100.00;99551.75;6302640;28;20475;-82
2021/08/27 06:46:52;;;;;;;8.63;6.07;;;;;;;15.33;100.00;99551.88;6302286;28;20502;-82
2021/08/27 06:49:52;;;;;;;9.60;6.43;;;;;;;15.23;100.00;99543.16;6319433;28;20040;-83
2021/08/27 06:52:55;;;;;;;11.55;6.60;;;;;;;15.15;100.00;99553.50;6286007;28;20414;-82
2021/08/27 06:55:56;;;;;;;8.88;6.03;;;;;;;15.14;100.00;99562.38;6285759;28;20737;-82
2021/08/27 06:58:57;;;;;;;9.73;5.78;;;;;;;15.15;100.00;99569.28;6302356;28;20047;-84
2021/08/27 07:01:58;;;;;;;13.07;6.30;;;;;;;15.18;100.00;99574.28;6320374;28;20367;-83
2021/08/27 07:04:59;;;;;;;8.77;5.78;;;;;;;15.15;100.00;99574.53;6302138;28;20040;-83
2021/08/27 07:07:59;;;;;;;15.52;6.30;;;;;;;15.03;100.00;99582.53;6285759;28;20044;-83
2021/08/27 07:11:00;;;;;;;13.18;5.97;;;;;;;15.07;100.00;99583.06;6268934;28;20047;-83
2021/08/27 07:14:03;;;;;;;8.45;6.00;;;;;;;15.03;100.00;99594.81;6282435;28;20048;-83
2021/08/27 07:17:04;;;;;;;13.38;6.55;;;;;;;15.14;100.00;99596.53;6278553;28;20083;-84
2021/08/27 07:20:05;;;;;;;9.63;6.68;;;;;;;15.19;100.00;99604.81;6296447;28;20543;-85
2021/08/27 07:23:06;;;;;;;10.90;6.65;;;;;;;15.26;100.00;99600.72;6294468;28;20036;-84
2021/08/27 07:26:07;;;;;;;10.40;6.53;;;;;;;15.31;100.00;99604.56;6266211;28;20028;-84
2021/08/27 07:29:08;;;;;;;9.05;5.60;;;;;;;15.36;100.00;99606.81;6284691;28;20046;-83
2021/08/27 07:32:11;;;;;;;10.85;7.18;;;;;;;15.33;100.00;99614.97;6285073;28;20241;-82
2021/08/27 07:35:13;;;;;;;11.50;6.30;;;;;;;15.34;100.00;99610.53;6284933;28;20588;-82
2021/08/27 07:38:14;;;;;;;12.23;6.78;;;;;;;15.30;100.00;99613.44;6300683;28;20555;-82
2021/08/27 07:41:15;;;;;;;10.75;5.95;;;;;;;15.30;100.00;99612.63;6284418;28;20035;-82
2021/08/27 07:44:15;;;;;;;12.65;6.07;;;;;;;15.35;100.00;99620.09;6267886;28;20047;-83
2021/08/27 07:47:16;;;;;;;9.32;6.18;;;;;;;15.33;100.00;99617.59;6284664;28;20046;-83
2021/08/27 07:50:18;;;;;;;11.20;7.57;;;;;;;15.37;100.00;99618.97;6284477;28;20115;-83
2021/08/27 07:53:19;;;;;;;10.48;6.85;;;;;;;15.30;100.00;99620.50;6284610;28;20451;-81
2021/08/27 07:56:20;;;;;;;9.90;6.50;;;;;;;15.30;100.00;99621.31;6268505;28;20036;-83
2021/08/27 07:59:22;;;;;;;11.15;6.07;;;;;;;15.37;100.00;99632.13;6284756;28;20551;-82
2021/08/27 08:02:23;;;;;;;9.70;6.40;;;;;;;15.36;100.00;99633.09;6268349;28;20380;-88
2021/08/27 08:05:23;;;;;;;11.30;6.90;;;;;;;15.38;100.00;99635.56;6302311;28;20040;-86
2021/08/27 08:08:24;;;;;;;11.48;6.60;;;;;;;15.40;100.00;99642.38;6287023;28;20074;-83
2021/08/27 08:11:25;;;;;;;12.52;6.95;;;;;;;15.45;100.00;99648.06;6269162;28;20047;-84
2021/08/27 08:14:26;;;;;;;11.68;6.70;;;;;;;15.54;100.00;99635.91;6286186;28;20098;-87
2021/08/27 08:17:27;;;;;;;13.23;7.00;;;;;;;15.51;100.00;99634.38;6284697;28;20452;-84
2021/08/27 08:20:28;;;;;;;9.73;6.90;;;;;;;15.52;100.00;99632.56;6284646;28;20051;-87
2021/08/27 08:23:29;;;;;;;12.25;6.72;;;;;;;15.45;100.00;99624.41;6285395;28;20207;-86
2021/08/27 08:26:30;;;;;;;13.10;7.78;;;;;;;15.52;100.00;99625.53;6284115;28;20431;-84
2021/08/27 08:29:33;;;;;;;13.25;7.72;;;;;;;15.71;100.00;99635.25;6293442;28;20154;-88
2021/08/27 08:32:34;;;;;;;13.45;7.45;;;;;;;15.85;100.00;99634.03;6270670;28;20044;-87
2021/08/27 08:35:35;;;;;;;15.98;7.53;;;;;;;15.66;100.00;99623.47;6311196;28;20501;-87
2021/08/27 08:38:35;;;;;;;12.23;7.75;;;;;;;15.62;100.00;99622.91;6295044;28;20084;-88
2021/08/27 08:41:36;;;;;;;11.93;8.70;;;;;;;15.60;100.00;99611.69;6329515;28;20171;-90
2021/08/27 08:44:37;;;;;;;14.70;8.27;;;;;;;15.74;100.00;99618.38;6295775;28;20048;-87
2021/08/27 08:47:40;;;;;;;10.73;8.05;;;;;;;15.72;100.00;99615.06;6311312;28;20130;-87
2021/08/27 08:50:41;;;;;;;12.23;8.00;;;;;;;15.77;100.00;99612.81;6328742;28;20535;-86
2021/08/27 08:53:46;;;;;;;12.70;8.48;;;;;;;15.74;100.00;99621.00;6298236;28;20047;-84
2021/08/27 08:56:47;;;;;;;11.70;8.60;;;;;;;15.74;100.00;99625.44;6331101;28;20107;-84
2021/08/27 08:59:48;;;;;;;13.50;8.77;;;;;;;15.81;100.00;99640.53;6330904;28;20504;-84
2021/08/27 09:02:48;;;;;;;16.27;8.32;;;;;;;15.64;100.00;99639.38;6297489;28;20042;-85
2021/08/27 09:05:49;;;;;;;12.27;8.55;;;;;;;15.58;100.00;99649.59;6313338;28;20035;-85
2021/08/27 09:08:52;;;;;;;11.65;8.48;;;;;;;15.71;100.00;99653.66;6313953;28;20035;-86
2021/08/27 09:11:52;;;;;;;12.93;8.27;;;;;;;15.81;100.00;99658.09;6313956;28;20044;-86
2021/08/27 09:15:09;;;;;;;13.27;8.50;;;;;;;15.95;100.00;99659.53;6309155;28;20036;-87
2021/08/27 09:18:10;;;;;;;11.70;7.82;;;;;;;16.00;100.00;99662.56;6289045;28;20076;-87
2021/08/27 09:21:32;;;;;;;12.10;8.15;;;;;;;16.03;100.00;99671.00;6305684;28;20370;-88
2021/08/27 09:24:33;;;;;;;11.57;8.40;;;;;;;16.00;100.00;99659.91;6323413;28;20109;-89
2021/08/27 09:27:36;;;;;;;12.40;8.00;;;;;;;16.05;100.00;99658.53;6305666;28;20036;-87
2021/08/27 09:30:54;;;;;;;13.50;8.40;;;;;;;16.13;100.00;99651.78;6305485;28;20044;-89
2021/08/27 09:33:56;;;;;;;12.02;7.57;;;;;;;16.14;100.00;99646.34;6305627;28;20150;-88
2021/08/27 09:36:58;;;;;;;12.98;7.63;;;;;;;16.19;100.00;99654.66;6288439;28;20044;-87
2021/08/27 09:40:03;;;;;;;13.02;8.50;;;;;;;16.28;100.00;99663.53;6305176;28;20097;-89
2021/08/27 09:43:06;;;;;;;11.85;8.43;;;;;;;16.22;100.00;99664.91;6304728;28;20040;-87
2021/08/27 09:46:34;;;;;;;13.82;8.50;;;;;;;16.17;100.00;99668.94;6288642;28;20040;-87
2021/08/27 09:49:36;;;;;;;11.48;7.72;;;;;;;16.10;100.00;99669.50;6322812;28;20040;-88
2021/08/27 09:52:37;;;;;;;11.57;7.88;;;;;;;16.09;100.00;99673.09;6304983;28;20078;-84
2021/08/27 09:55:53;;;;;;;11.57;6.68;;;;;;;16.00;100.00;99660.78;6287666;28;20039;-84
2021/08/27 09:58:54;;;;;;;11.70;8.30;;;;;;;16.00;100.00;99667.81;6304280;28;20046;-84
2021/08/27 10:01:54;;;;;;;12.65;7.95;;;;;;;16.08;100.00;99670.59;6270909;28;20040;-84
2021/08/27 10:04:58;;;;;;;11.50;7.32;;;;;;;16.09;100.00;99669.63;6287692;28;20036;-83
2021/08/27 10:08:17;;;;;;;13.52;8.18;;;;;;;16.06;100.00;99664.63;6304144;28;20044;-85
2021/08/27 10:11:21;;;;;;;14.40;7.88;;;;;;;16.07;100.00;99658.41;6304160;28;20416;-88
2021/08/27 10:14:22;;;;;;;12.23;8.02;;;;;;;16.15;100.00;99670.88;6322115;28;20038;-87
2021/08/27 10:17:23;;;;;;;14.55;8.05;;;;;;;16.13;100.00;99660.50;6287457;28;20043;-87
2021/08/27 10:20:25;;;;;;;14.85;8.18;;;;;;;16.14;100.00;99675.28;6303919;28;20032;-85
2021/08/27 10:23:26;;;;;;;8.93;7.05;;;;;;;16.24;100.00;99678.75;6270716;28;20402;-86
2021/08/27 10:26:28;;;;;;;8.52;5.70;;;;;;;16.23;100.00;99686.81;6287157;28;20059;-82
2021/08/27 10:29:29;;;;;;;8.23;5.25;;;;;;;16.20;100.00;99687.09;6270566;28;20044;-83
2021/08/27 10:32:39;;;;;;;7.40;4.65;;;;;;;16.02;100.00;99685.16;6286985;28;20039;-82
2021/08/27 10:35:39;;;;;;;7.25;5.18;;;;;;;15.93;100.00;99666.72;6305969;28;20048;-82
2021/08/27 10:38:42;;;;;;;7.32;5.10;;;;;;;15.79;100.00;99657.41;6312750;28;20060;-82
2021/08/27 10:41:42;;;;;;;8.57;5.55;;;;;;;15.80;100.00;99670.44;6303176;28;20037;-82
2021/08/27 10:44:45;;;;;;;13.10;7.15;;;;;;;15.84;100.00;99666.56;6286710;28;20040;-82
2021/08/27 10:48:25;;;;;;;10.98;7.05;;;;;;;15.96;100.00;99667.28;6322552;28;20483;-82
2021/08/27 10:51:29;;;;;;;9.77;6.38;;;;;;;15.94;100.00;99663.09;6282388;28;20478;-82
2021/08/27 10:55:12;;;;;;;8.75;6.07;;;;;;;16.08;100.00;99660.91;6305060;28;20047;-81
2021/08/27 10:58:14;;;;;;;8.70;6.00;;;;;;;16.13;100.00;99657.03;6288099;28;20059;-80
2021/08/27 11:01:36;;;;;;;8.55;5.43;;;;;;;16.13;100.00;99667.56;6271959;28;20036;-82
2021/08/27 11:04:44;;;;;;;9.85;6.15;;;;;;;16.04;100.00;99674.47;6322980;28;20040;-82
2021/08/27 11:07:45;;;;;;;9.70;6.30;;;;;;;16.09;100.00;99680.97;6304245;28;20044;-82
2021/08/27 11:11:07;;;;;;;11.43;7.20;;;;;;;15.95;100.00;99694.53;6269803;28;20101;-82
2021/08/27 11:14:19;;;;;;;9.00;6.30;;;;;;;15.92;100.00;99700.09;6302159;28;20036;-82
2021/08/27 11:17:20;;;;;;;;;;;;;;;15.97;100.00;99704.94;6286716;28;20056;-86
2021/08/27 11:20:28;;;;;;;11.38;6.30;;;;;;;15.97;100.00;99700.50;6321054;28;20332;-86
2021/08/27 11:23:53;;;;;;;10.55;6.07;;;;;;;15.98;100.00;99703.97;6299111;28;20067;-87
2021/08/27 11:27:03;;;;;;;8.15;5.75;;;;;;;16.00;100.00;99684.47;6268808;28;20051;-86
2021/08/27 11:30:26;;;;;;;7.60;5.45;;;;;;;16.00;100.00;99686.22;6300767;28;20032;-86
2021/08/27 11:33:44;;;;;;;9.43;6.43;;;;;;;15.95;100.00;99677.94;6301942;28;20055;-86
2021/08/27 11:36:49;;;;;;;10.05;7.10;;;;;;;16.05;100.00;99660.34;6301770;28;20383;-86
2021/08/27 11:39:51;;;;;;;9.70;6.72;;;;;;;16.30;100.00;99661.59;6320573;28;20044;-88
2021/08/27 11:42:56;;;;;;;9.02;6.00;;;;;;;16.42;100.00;99667.53;6269048;28;20090;-88
2021/08/27 11:45:59;;;;;;;7.63;4.95;;;;;;;16.36;100.00;99668.09;6312277;28;20064;-87
2021/08/27 11:49:26;;;;;;;8.80;5.97;;;;;;;16.31;100.00;99663.25;6258737;28;20379;-81
2021/08/27 11:52:28;;;;;;;11.30;7.20;;;;;;;16.37;100.00;99672.38;6293944;28;20041;-81
2021/08/27 11:55:30;;;;;;;11.02;6.88;;;;;;;16.29;100.00;99692.34;6269410;28;20115;-81
2021/08/27 11:58:44;;;;;;;12.32;7.50;;;;;;;16.21;100.00;99700.13;6268922;28;20401;-81
2021/08/27 12:01:44;;;;;;;14.05;8.38;;;;;;;16.17;100.00;99709.25;6285690;28;20040;-80
2021/08/27 12:04:54;;;;;;;12.32;8.68;;;;;;;16.10;100.00;99701.09;6268821;28;20402;-80
2021/08/27 12:08:00;;;;;;;12.68;7.00;;;;;;;16.11;100.00;99679.03;6302009;28;20105;-80
2021/08/27 12:11:01;;;;;;;8.98;5.47;;;;;;;16.31;100.00;99689.59;6302205;28;20555;-80
2021/08/27 12:14:02;;;;;;;7.37;4.73;;;;;;;16.31;100.00;99677.25;6319073;28;20048;-80
2021/08/27 12:17:03;;;;;;;6.57;4.75;;;;;;;16.42;100.00;99671.00;6285226;28;20406;-80
2021/08/27 12:20:06;;;;;;;7.30;4.53;;;;;;;16.49;100.00;99674.75;6268727;28;20498;-81
2021/08/27 12:23:16;;;;;;;8.63;5.20;;;;;;;16.72;100.00;99675.25;6285370;28;20044;-82
2021/08/27 12:26:22;;;;;;;8.77;6.18;;;;;;;16.81;100.00;99675.41;6303473;28;20044;-81
2021/08/27 12:29:22;;;;;;;9.88;6.00;;;;;;;16.73;100.00;99676.06;6326158;28;20043;-83
2021/08/27 12:32:23;;;;;;;10.43;6.32;;;;;;;16.68;100.00;99676.50;6292092;28;20040;-89
2021/08/27 12:35:29;;;;;;;9.85;6.53;;;;;;;16.49;100.00;99676.53;6292515;28;20036;-88
2021/08/27 12:38:30;;;;;;;9.07;6.30;;;;;;;16.40;100.00;99696.63;6327306;28;20411;-89
2021/08/27 12:41:36;;;;;;;9.25;6.95;;;;;;;16.35;100.00;99688.34;6292400;28;20036;-89
2021/08/27 12:44:36;;;;;;;9.00;5.53;;;;;;;16.25;100.00;99680.44;6308587;28;20040;-85
2021/08/27 12:47:39;;;;;;;9.15;5.95;;;;;;;16.27;100.00;99667.97;6292229;28;20555;-86
2021/08/27 12:50:54;;;;;;;8.57;6.22;;;;;;;16.34;100.00;99654.25;6291827;28;20502;-89
2021/08/27 12:53:57;;;;;;;8.80;6.10;;;;;;;16.54;100.00;99682.22;6308378;28;20448;-86
2021/08/27 12:57:09;;;;;;;8.23;5.20;;;;;;;16.46;100.00;99696.06;6303031;28;20050;-88
2021/08/27 13:00:18;;;;;;;7.03;4.78;;;;;;;16.35;100.00;99696.25;6305924;28;20487;-87
2021/08/27 13:03:19;;;;;;;6.43;4.90;;;;;;;16.36;100.00;99694.44;6297143;28;20055;-80
2021/08/27 13:06:38;;;;;;;7.70;4.80;;;;;;;16.24;100.00;99701.63;6273562;28;20054;-80
2021/08/27 13:09:40;;;;;;;7.13;4.68;;;;;;;16.31;100.00;99711.47;6294780;28;20051;-80
2021/08/27 13:12:41;;;;;;;8.40;5.30;;;;;;;16.27;100.00;99701.38;6302417;28;20093;-88
2021/08/27 13:15:42;;;;;;;7.47;4.82;;;;;;;16.39;100.00;99702.03;6290246;28;20498;-88
2021/08/27 13:18:55;;;;;;;11.10;5.13;;;;;;;16.39;100.00;99695.00;6267216;28;20040;-86
2021/08/27 13:21:56;;;;;;;8.27;5.93;;;;;;;16.43;100.00;99696.38;6306647;28;20040;-86
2021/08/27 13:25:07;;;;;;;9.93;5.78;;;;;;;16.54;100.00;99703.28;6290110;28;20692;-86
2021/08/27 13:28:07;;;;;;;7.82;5.10;;;;;;;16.54;100.00;99700.66;6307288;28;20127;-85
2021/08/27 13:31:08;;;;;;;8.70;5.45;;;;;;;16.40;100.00;99704.53;6273794;28;20059;-86
2021/08/27 13:34:09;;;;;;;8.00;5.00;;;;;;;16.36;100.00;99711.06;6306841;28;20048;-85
2021/08/27 13:37:10;;;;;;;8.10;5.07;;;;;;;16.35;100.00;99719.06;6270509;28;20056;-86
2021/08/27 13:40:13;;;;;;;8.30;5.80;;;;;;;16.36;100.00;99708.41;6273985;28;20157;-86
2021/08/27 13:43:13;;;;;;;7.50;5.90;;;;;;;16.45;100.00;99715.50;6273317;28;20139;-84
2021/08/27 13:46:14;;;;;;;8.20;5.53;;;;;;;16.46;100.00;99713.69;6268899;28;20115;-84
2021/08/27 13:49:15;;;;;;;9.98;6.32;;;;;;;16.44;100.00;99700.66;6265367;28;20041;-85
2021/08/27 13:52:16;;;;;;;7.45;5.53;;;;;;;16.51;100.00;99701.78;6256704;28;20056;-84
2021/08/27 13:55:19;;;;;;;11.45;6.20;;;;;;;16.56;100.00;99708.41;6267363;28;20040;-83
2021/08/27 13:58:20;;;;;;;11.95;5.82;;;;;;;16.69;100.00;99707.13;6279850;28;20063;-84
2021/08/27 14:01:20;;;;;;;6.80;5.40;;;;;;;16.68;100.00;99697.59;6247239;28;20459;-84
2021/08/27 14:04:21;;;;;;;8.07;5.70;;;;;;;16.79;100.00;99698.38;6246926;28;20064;-83
2021/08/27 14:07:22;;;;;;;8.18;4.93;;;;;;;16.97;100.00;99694.06;6246918;28;20119;-84
2021/08/27 14:10:23;;;;;;;7.30;5.15;;;;;;;17.13;100.00;99706.63;6279862;28;20041;-83
2021/08/27 14:13:26;;;;;;;8.10;5.15;;;;;;;17.38;100.00;99705.16;6279818;28;20053;-84